D/T METAR WX W/DIR W/SPE G/SPE TEMP DEWP
25/02/20 14:50 EGOP 251450Z AUTO 27035G45KT 9999 // SCT026/// SCT032/// 07/02 Q0998 W (270°) 40.3mph 51.8mph 7°C 2°C
25/02/20 13:50 EGOP 251350Z 24022G43KT 9999 SHRA FEW014 BKN024 04/03 Q0998 WHT SHRA WSW (240°) 25.3mph 49.5mph 4°C 3°C
25/02/20 12:50 EGOP 251250Z 26019KT 9999 VCSH FEW014 BKN022 05/03 Q1000 WHT VCSH W (260°) 21.9mph 5°C 3°C
25/02/20 11:50 EGOP 251150Z 27022KT 9999 FEW026 SCT090 07/02 Q1000 BLU W (270°) 25.3mph 7°C 2°C
25/02/20 10:50 EGOP 251050Z 26025KT 9999 SCT029 SCT033 08/02 Q1001 BLU W (260°) 28.8mph 8°C 2°C
25/02/20 09:50 EGOP 250950Z 26021KT 9999 FEW023 SCT029 06/04 Q1001 BLU W (260°) 24.2mph 6°C 4°C
25/02/20 08:50 EGOP 250850Z 26018KT 8000 SHRA FEW015 BKN024 07/03 Q1002 WHT SHRA W (260°) 20.7mph 7°C 3°C
25/02/20 07:50 EGOP 250750Z AUTO 26014KT 9999 // BKN120/// 07/03 Q1002 W (260°) 16.1mph 7°C 3°C
25/02/20 06:50 EGOP 250650Z AUTO 27018KT 9999 // BKN150/// 07/03 Q1003 W (270°) 20.7mph 7°C 3°C
25/02/20 05:50 EGOP 250550Z AUTO 28018KT 9999 // NCD 06/03 Q1003 W (280°) 20.7mph 6°C 3°C
25/02/20 04:50 EGOP 250450Z AUTO 26021KT 9999 // BKN022/// 07/05 Q1003 W (260°) 24.2mph 7°C 5°C
25/02/20 03:50 EGOP 250350Z AUTO 27018KT 9999 // FEW048/// BKN070/// 07/04 Q1004 W (270°) 20.7mph 7°C 4°C
25/02/20 02:50 EGOP 250250Z AUTO 27019KT 9999 // SCT120/// 07/04 Q1005 W (270°) 21.9mph 7°C 4°C
25/02/20 01:50 EGOP 250150Z AUTO 26013KT 9999 // BKN041/// 07/04 Q1006 W (260°) 15.0mph 7°C 4°C
25/02/20 00:50 EGOP 250050Z AUTO 27013KT 9999 // BKN060/// 07/04 Q1006 W (270°) 15.0mph 7°C 4°C
24/02/20 23:50 EGOP 242350Z AUTO 28015KT 9999 // FEW026/// 06/02 Q1007 W (280°) 17.3mph 6°C 2°C
24/02/20 22:50 EGOP 242250Z AUTO 27018KT 9999 // FEW031/// SCT050/// 07/04 Q1007 W (270°) 20.7mph 7°C 4°C
24/02/20 21:50 EGOP 242150Z AUTO 28015KT 9999 // FEW042/// 07/04 Q1007 W (280°) 17.3mph 7°C 4°C
24/02/20 20:50 EGOP 242050Z AUTO 27012KT 4900 // NCD 08/05 Q1007 W (270°) 13.8mph 8°C 5°C
24/02/20 19:50 EGOP 241950Z AUTO 26017KT 6000 // BKN045/// 09/06 Q1007 W (260°) 19.6mph 9°C 6°C
24/02/20 18:50 EGOP 241850Z AUTO 26015KT 5000 // SCT039/// 09/06 Q1007 W (260°) 17.3mph 9°C 6°C
24/02/20 17:50 EGOP 241750Z AUTO 27016KT 4300 // FEW028/// 09/06 Q1007 W (270°) 18.4mph 9°C 6°C
24/02/20 16:50 EGOP 241650Z AUTO 28017KT 6000 // SCT023/// SCT036/// 10/06 Q1006 W (280°) 19.6mph 10°C 6°C
24/02/20 15:50 EGOP 241550Z AUTO 27024KT 9999 // BKN019/// SCT026/// 10/08 Q1006 W (270°) 27.6mph 10°C 8°C
24/02/20 14:50 EGOP 241450Z AUTO 26026KT 7000 // BKN015/// BKN029/// 10/09 Q1005 W (260°) 29.9mph 10°C 9°C
24/02/20 13:50 EGOP 241350Z 25030KT 8000 HZ BKN014 BKN023 10/09 Q1004 GRN HZ WSW (250°) 34.5mph 10°C 9°C
24/02/20 12:50 EGOP 241250Z 24031KT 3000 BR BKN003 BKN013 10/10 Q1005 YLO2 BR WSW (240°) 35.7mph 10°C 10°C
24/02/20 11:50 EGOP 241150Z 23033KT 1500 RA OVC006 10/10 Q1005 AMB RA SW (230°) 38.0mph 10°C 10°C
24/02/20 10:50 EGOP 241050Z 23034KT 4000 BR OVC007 10/10 Q1006 GRN BR SW (230°) 39.1mph 10°C 10°C
24/02/20 09:50 EGOP 240950Z 23033KT 2000 RA BKN007 10/10 Q1006 YLO2 RA SW (230°) 38.0mph 10°C 10°C
24/02/20 08:50 EGOP 240850Z 23032KT 1500 RA OVC007 10/09 Q1007 AMB RA SW (230°) 36.8mph 10°C 9°C
24/02/20 07:50 EGOP 240750Z AUTO 22034KT 1500 // BKN005/// BKN013/// 10/09 Q1007 SW (220°) 39.1mph 10°C 9°C
24/02/20 06:50 EGOP 240650Z AUTO 22033KT 1000 // BKN004/// BKN010/// 09/09 Q1008 SW (220°) 38.0mph 9°C 9°C
24/02/20 05:50 EGOP 240550Z AUTO 22036KT 2500 // OVC009/// 10/09 Q1009 SW (220°) 41.4mph 10°C 9°C
24/02/20 04:50 EGOP 240450Z AUTO 21033KT 3600 // OVC003/// 10/09 Q1010 SSW (210°) 38.0mph 10°C 9°C
24/02/20 03:50 EGOP 240350Z AUTO 20027KT 2600 // OVC003/// 10/10 Q1012 SSW (200°) 31.1mph 10°C 10°C
24/02/20 02:50 EGOP 240250Z AUTO 18024KT 1700 // OVC002/// 09/09 Q1014 S (180°) 27.6mph 9°C 9°C
24/02/20 01:50 EGOP 240150Z AUTO 14017KT 5000 // FEW005/// BKN008/// 07/07 Q1016 SE (140°) 19.6mph 7°C 7°C
24/02/20 00:50 EGOP 240050Z AUTO 13012KT 4200 // SCT005/// BKN012/// 06/06 Q1018 SE (130°) 13.8mph 6°C 6°C
23/02/20 23:50 EGOP 232350Z AUTO 13009KT 4000 // BKN004/// SCT011/// 06/05 Q1019 SE (130°) 10.4mph 6°C 5°C
23/02/20 22:50 EGOP 232250Z AUTO 12009KT 9999 // BKN033/// BKN050/// 06/04 Q1021 ESE (120°) 10.4mph 6°C 4°C
23/02/20 21:50 EGOP 232150Z AUTO 09005KT 9999 // OVC042/// 07/04 Q1022 E (90°) 5.8mph 7°C 4°C
23/02/20 20:50 EGOP 232050Z AUTO 12003KT 9999 // BKN050/// 07/05 Q1022 ESE (120°) 3.5mph 7°C 5°C
23/02/20 19:50 EGOP 231950Z AUTO 18003KT 9999 // SCT038/// OVC047/// 07/05 Q1023 S (180°) 3.5mph 7°C 5°C
23/02/20 18:50 EGOP 231850Z AUTO 13001KT 9000 // OVC060/// 07/05 Q1023 SE (130°) 1.2mph 7°C 5°C
23/02/20 17:50 EGOP 231750Z AUTO 34003KT 9999 // OVC080/// 08/04 Q1022 NNW (340°) 3.5mph 8°C 4°C
23/02/20 16:50 EGOP 231650Z AUTO 33009KT 9999 // BKN080/// 09/04 Q1022 NNW (330°) 10.4mph 9°C 4°C
23/02/20 15:50 EGOP 231550Z AUTO 34008KT 9999 // BKN100/// 09/04 Q1021 NNW (340°) 9.2mph 9°C 4°C